createdAt,value
2023-03-02T00:01:49.692Z,14.48
2023-03-02T00:04:22.406Z,13.02
2023-03-02T00:06:54.840Z,13.47
2023-03-02T00:09:23.351Z,13.05
2023-03-02T00:11:52.593Z,14.10
2023-03-02T00:14:20.841Z,13.23
2023-03-02T00:16:49.274Z,12.85
2023-03-02T00:19:17.648Z,12.63
2023-03-02T00:21:45.977Z,12.75
2023-03-02T00:24:16.153Z,12.98
2023-03-02T00:26:44.563Z,12.90
2023-03-02T00:29:13.053Z,12.65
2023-03-02T00:31:42.957Z,12.60
2023-03-02T00:34:11.535Z,12.85
2023-03-02T00:36:40.294Z,12.70
2023-03-02T00:39:08.837Z,12.27
2023-03-02T00:41:38.483Z,11.57
2023-03-02T00:44:06.857Z,11.88
2023-03-02T00:46:35.671Z,11.57
2023-03-02T00:49:04.007Z,12.15
2023-03-02T00:51:32.392Z,12.07
2023-03-02T00:54:02.958Z,12.10
2023-03-02T00:56:31.764Z,11.90
2023-03-02T00:59:06.661Z,12.23
2023-03-02T01:01:35.264Z,12.27
2023-03-02T01:04:03.497Z,12.00
2023-03-02T01:06:32.105Z,12.25
2023-03-02T01:09:00.926Z,11.90
2023-03-02T01:11:29.172Z,12.80
2023-03-02T01:13:57.467Z,12.27
2023-03-02T01:16:27.495Z,12.13
2023-03-02T01:18:55.710Z,12.35
2023-03-02T01:21:23.931Z,11.85
2023-03-02T01:23:53.052Z,11.10
2023-03-02T01:26:21.310Z,11.38
2023-03-02T01:28:50.099Z,11.52
2023-03-02T01:31:19.753Z,12.20
2023-03-02T01:33:49.490Z,12.32
2023-03-02T01:36:18.258Z,12.07
2023-03-02T01:38:47.093Z,11.55
2023-03-02T01:41:15.297Z,11.20
2023-03-02T01:43:43.610Z,11.73
2023-03-02T01:46:15.134Z,11.38
2023-03-02T01:48:49.904Z,11.70
2023-03-02T01:51:22.168Z,12.00
2023-03-02T01:53:55.383Z,11.23
2023-03-02T01:56:28.137Z,12.05
2023-03-02T01:59:02.139Z,11.85
2023-03-02T02:01:31.534Z,11.90
2023-03-02T02:04:01.697Z,11.77
2023-03-02T02:06:34.374Z,11.95
2023-03-02T02:09:04.870Z,11.73
2023-03-02T02:11:33.179Z,11.63
2023-03-02T02:14:03.524Z,11.63
2023-03-02T02:16:34.822Z,12.13
2023-03-02T02:19:08.324Z,11.48
2023-03-02T02:21:36.965Z,11.40
2023-03-02T02:24:11.162Z,11.98
2023-03-02T02:26:46.001Z,12.25
2023-03-02T02:29:22.985Z,11.57
2023-03-02T02:31:55.832Z,12.45
2023-03-02T02:34:30.599Z,12.05
2023-03-02T02:37:04.448Z,11.85
2023-03-02T02:39:36.500Z,11.98
2023-03-02T02:42:11.528Z,12.35
2023-03-02T02:44:40.933Z,12.43
2023-03-02T02:47:18.651Z,12.18
2023-03-02T02:49:49.233Z,12.13
2023-03-02T02:52:20.076Z,12.23
2023-03-02T02:54:51.178Z,11.77
2023-03-02T02:57:22.030Z,12.18
2023-03-02T02:59:53.610Z,11.93
2023-03-02T03:02:24.721Z,11.65
2023-03-02T03:05:02.670Z,12.02
2023-03-02T03:07:34.017Z,12.27
2023-03-02T03:10:10.045Z,11.40
2023-03-02T03:12:41.058Z,11.40
2023-03-02T03:15:09.968Z,12.00
2023-03-02T03:17:38.448Z,11.52
2023-03-02T03:20:09.275Z,11.90
2023-03-02T03:22:38.636Z,11.70
2023-03-02T03:25:07.583Z,11.43
2023-03-02T03:27:35.757Z,11.80
2023-03-02T03:30:06.123Z,12.10
2023-03-02T03:32:36.119Z,12.50
2023-03-02T03:35:08.589Z,11.65
2023-03-02T03:37:38.362Z,11.95
2023-03-02T03:40:09.615Z,11.77
2023-03-02T03:42:39.863Z,12.57
2023-03-02T03:45:10.479Z,12.27
2023-03-02T03:47:38.766Z,11.85
2023-03-02T03:50:08.643Z,12.23
2023-03-02T03:52:36.762Z,12.40
2023-03-02T03:55:05.624Z,12.90
2023-03-02T03:57:33.968Z,12.05
2023-03-02T04:00:02.170Z,12.40
2023-03-02T04:02:31.941Z,12.25
2023-03-02T04:05:07.209Z,11.68
2023-03-02T04:07:36.667Z,12.32
2023-03-02T04:10:05.914Z,12.35
2023-03-02T04:12:36.247Z,12.63
2023-03-02T04:15:05.338Z,12.45
2023-03-02T04:17:34.898Z,12.82
2023-03-02T04:20:05.937Z,13.20
2023-03-02T04:22:34.245Z,13.82
2023-03-02T04:25:02.806Z,12.93
2023-03-02T04:27:31.177Z,13.45
2023-03-02T04:29:59.541Z,12.75
2023-03-02T04:32:27.802Z,12.88
2023-03-02T04:34:57.726Z,12.77
2023-03-02T04:37:26.262Z,13.05
2023-03-02T04:39:54.384Z,12.85
2023-03-02T04:42:23.424Z,12.82
2023-03-02T04:44:51.836Z,12.18
2023-03-02T04:47:19.975Z,11.63
2023-03-02T04:49:50.749Z,12.55
2023-03-02T04:52:20.628Z,11.95
2023-03-02T04:54:49.256Z,11.77
2023-03-02T04:57:17.670Z,12.20
2023-03-02T04:59:45.976Z,12.40
2023-03-02T05:02:14.302Z,11.55
2023-03-02T05:04:42.881Z,11.68
2023-03-02T05:07:11.192Z,12.25
2023-03-02T05:09:40.745Z,11.75
2023-03-02T05:12:09.412Z,11.38
2023-03-02T05:14:37.652Z,12.32
2023-03-02T05:17:05.833Z,12.30
2023-03-02T05:19:34.296Z,12.43
2023-03-02T05:22:02.730Z,11.65
2023-03-02T05:24:30.890Z,12.20
2023-03-02T05:27:00.573Z,12.52
2023-03-02T05:29:29.068Z,11.95
2023-03-02T05:31:57.377Z,12.27
2023-03-02T05:34:25.891Z,12.88
2023-03-02T05:36:54.128Z,12.93
2023-03-02T05:39:22.287Z,12.13
2023-03-02T05:41:50.720Z,12.20
2023-03-02T05:44:20.664Z,11.68
2023-03-02T05:46:49.677Z,12.30
2023-03-02T05:49:18.171Z,13.10
2023-03-02T05:51:46.427Z,12.25
2023-03-02T05:54:15.957Z,11.85
2023-03-02T05:56:44.372Z,11.57
2023-03-02T05:59:12.571Z,12.32
2023-03-02T06:01:42.225Z,12.43
2023-03-02T06:04:10.758Z,12.20
2023-03-02T06:06:39.510Z,12.88
2023-03-02T06:09:07.907Z,12.85
2023-03-02T06:11:36.318Z,12.45
2023-03-02T06:14:04.492Z,12.80
2023-03-02T06:16:33.971Z,12.95
2023-03-02T06:19:03.957Z,13.40
2023-03-02T06:21:32.081Z,12.82
2023-03-02T06:24:00.498Z,13.93
2023-03-02T06:26:28.727Z,13.23
2023-03-02T06:28:56.926Z,12.20
2023-03-02T06:31:25.151Z,13.80
2023-03-02T06:33:53.619Z,13.20
2023-03-02T06:36:23.192Z,13.43
2023-03-02T06:38:51.476Z,14.43
2023-03-02T06:41:19.961Z,14.15
2023-03-02T06:43:48.339Z,14.43
2023-03-02T06:46:16.595Z,14.15
2023-03-02T06:48:44.877Z,14.13
2023-03-02T06:51:13.764Z,14.25
2023-03-02T06:53:43.395Z,14.75
2023-03-02T06:56:11.859Z,14.57
2023-03-02T06:58:39.995Z,14.90
2023-03-02T07:01:08.949Z,14.63
2023-03-02T07:03:37.612Z,14.57
2023-03-02T07:06:06.384Z,14.27
2023-03-02T07:08:34.850Z,15.15
2023-03-02T07:11:08.211Z,14.57
2023-03-02T07:13:38.000Z,14.65
2023-03-02T07:16:08.822Z,15.07
2023-03-02T07:18:37.500Z,15.70
2023-03-02T07:21:06.139Z,16.00
2023-03-02T07:23:34.995Z,15.85
2023-03-02T07:26:05.295Z,16.15
2023-03-02T07:28:35.094Z,16.00
2023-03-02T07:31:03.337Z,17.33
2023-03-02T07:33:31.664Z,16.92
2023-03-02T07:36:00.185Z,16.15
2023-03-02T07:38:28.910Z,15.50
2023-03-02T07:40:57.328Z,16.80
2023-03-02T07:43:26.591Z,16.33
2023-03-02T07:45:58.063Z,16.45
2023-03-02T07:48:27.820Z,18.52
2023-03-02T07:50:59.611Z,16.52
2023-03-02T07:53:27.827Z,17.58
2023-03-02T07:55:56.422Z,17.15
2023-03-02T07:58:25.240Z,16.67
2023-03-02T08:00:53.383Z,17.42
2023-03-02T08:03:23.446Z,16.65
2023-03-02T08:05:51.596Z,17.42
2023-03-02T08:08:19.769Z,16.75
2023-03-02T08:10:48.355Z,17.38
2023-03-02T08:13:16.931Z,18.80
2023-03-02T08:15:45.090Z,17.67
2023-03-02T08:18:13.545Z,17.65
2023-03-02T08:20:43.251Z,17.58
2023-03-02T08:23:11.412Z,18.17
2023-03-02T08:25:43.756Z,17.83
2023-03-02T08:28:11.939Z,18.45
2023-03-02T08:30:41.455Z,18.27
2023-03-02T08:33:10.024Z,18.23
2023-03-02T08:35:38.208Z,17.77
2023-03-02T08:38:08.050Z,18.63
2023-03-02T08:40:36.632Z,18.58
2023-03-02T08:43:06.723Z,22.80
2023-03-02T08:45:36.125Z,20.38
2023-03-02T08:48:04.564Z,25.08
2023-03-02T08:50:32.741Z,21.95
2023-03-02T08:53:01.128Z,18.67
2023-03-02T08:55:30.964Z,20.75
2023-03-02T08:57:59.092Z,19.85
2023-03-02T09:00:27.424Z,18.08
2023-03-02T09:02:55.811Z,18.45
2023-03-02T09:05:24.182Z,19.63
2023-03-02T09:07:52.567Z,18.35
2023-03-02T09:10:20.998Z,18.27
2023-03-02T09:12:50.664Z,19.00
2023-03-02T09:15:18.976Z,18.63
2023-03-02T09:17:47.538Z,18.40
2023-03-02T09:20:15.707Z,18.75
2023-03-02T09:22:48.654Z,17.45
2023-03-02T09:25:17.429Z,18.05
2023-03-02T09:27:46.142Z,17.42
2023-03-02T09:30:17.296Z,17.70
2023-03-02T09:32:45.728Z,18.48
2023-03-02T09:35:13.980Z,18.35
2023-03-02T09:37:44.361Z,17.58
2023-03-02T09:40:20.053Z,18.20
2023-03-02T09:43:19.572Z,17.50
2023-03-02T09:46:09.075Z,18.20
2023-03-02T09:48:43.971Z,18.33
2023-03-02T09:51:32.179Z,17.15
2023-03-02T09:54:08.108Z,17.95
2023-03-02T09:56:39.008Z,17.33
2023-03-02T09:59:14.896Z,16.77
2023-03-02T10:01:49.955Z,17.30
2023-03-02T10:04:25.624Z,17.65
2023-03-02T10:07:03.810Z,17.17
2023-03-02T10:09:32.155Z,17.98
2023-03-02T10:12:16.657Z,17.95
2023-03-02T10:14:49.669Z,17.75
2023-03-02T10:17:53.022Z,17.02
2023-03-02T10:20:34.139Z,18.20
2023-03-02T10:23:16.802Z,18.95
2023-03-02T10:25:49.688Z,17.92
2023-03-02T10:28:21.091Z,18.50
2023-03-02T10:30:53.532Z,18.48
2023-03-02T10:33:23.932Z,17.55
2023-03-02T10:35:54.421Z,18.38
2023-03-02T10:38:24.221Z,17.60
2023-03-02T10:41:00.227Z,18.48
2023-03-02T10:43:32.644Z,18.15
2023-03-02T10:46:02.685Z,18.65
2023-03-02T10:48:32.687Z,19.40
2023-03-02T10:51:01.463Z,18.52
2023-03-02T10:53:30.339Z,18.45
2023-03-02T10:55:58.529Z,19.20
2023-03-02T10:58:32.042Z,18.95
2023-03-02T11:01:02.706Z,21.42
2023-03-02T11:03:33.876Z,21.67
2023-03-02T11:06:17.697Z,21.88
2023-03-02T11:08:45.961Z,20.88
2023-03-02T11:11:24.465Z,22.00
2023-03-02T11:13:54.957Z,23.13
2023-03-02T11:16:28.407Z,22.40
2023-03-02T11:19:01.554Z,23.25
2023-03-02T11:21:35.718Z,24.63
2023-03-02T11:24:11.047Z,23.48
2023-03-02T11:26:44.146Z,23.70
2023-03-02T11:29:22.875Z,24.08
2023-03-02T11:31:54.592Z,23.27
2023-03-02T11:34:41.806Z,23.25
2023-03-02T11:37:19.611Z,22.60
2023-03-02T11:40:06.553Z,24.05
2023-03-02T11:42:37.844Z,24.63
2023-03-02T11:45:17.650Z,23.33
2023-03-02T11:48:02.207Z,24.27
2023-03-02T11:50:35.652Z,22.05
2023-03-02T11:53:08.072Z,24.20
2023-03-02T11:55:44.827Z,22.02
2023-03-02T11:58:18.248Z,22.95
2023-03-02T12:00:47.746Z,22.60
2023-03-02T12:03:25.721Z,20.98
2023-03-02T12:06:07.464Z,21.35
2023-03-02T12:08:40.280Z,21.20
2023-03-02T12:11:30.298Z,21.03
2023-03-02T12:14:04.667Z,21.80
2023-03-02T12:16:37.732Z,20.63
2023-03-02T12:19:14.586Z,20.35
2023-03-02T12:21:57.092Z,20.60
2023-03-02T12:24:27.562Z,20.88
2023-03-02T12:27:07.119Z,21.63
2023-03-02T12:29:43.031Z,21.67
2023-03-02T12:32:14.851Z,20.63
2023-03-02T12:34:45.963Z,20.10
2023-03-02T12:37:24.518Z,20.67
2023-03-02T12:40:26.763Z,20.30
2023-03-02T12:43:20.096Z,20.70
2023-03-02T12:46:14.448Z,20.67
2023-03-02T12:51:19.226Z,18.42
2023-03-02T12:53:49.485Z,18.67
2023-03-02T12:56:24.538Z,19.33
2023-03-02T12:58:53.702Z,19.63
2023-03-02T13:01:24.590Z,19.20
2023-03-02T13:03:53.839Z,21.25
2023-03-02T13:06:24.467Z,20.45
2023-03-02T13:08:58.291Z,19.98
2023-03-02T13:11:31.221Z,20.08
2023-03-02T13:14:00.598Z,19.17
2023-03-02T13:16:31.683Z,19.23
2023-03-02T13:19:02.062Z,20.58
2023-03-02T13:21:33.606Z,19.90
2023-03-02T13:24:03.651Z,21.38
2023-03-02T13:26:35.539Z,19.52
2023-03-02T13:29:06.704Z,19.38
2023-03-02T13:31:36.065Z,21.23
2023-03-02T13:34:04.260Z,19.73
2023-03-02T13:36:37.725Z,21.88
2023-03-02T13:39:09.182Z,21.40
2023-03-02T13:41:40.774Z,21.55
2023-03-02T13:44:20.505Z,22.90
2023-03-02T13:46:49.330Z,23.98
2023-03-02T13:49:27.744Z,21.05
2023-03-02T13:52:03.243Z,21.27
2023-03-02T13:54:35.028Z,20.45
2023-03-02T13:57:06.036Z,18.67
2023-03-02T13:59:36.745Z,20.52
2023-03-02T14:02:21.290Z,20.85
2023-03-02T14:04:49.569Z,18.58
2023-03-02T14:07:18.893Z,17.95
2023-03-02T14:09:49.265Z,18.35
2023-03-02T14:12:25.896Z,18.27
2023-03-02T14:14:56.488Z,17.38
2023-03-02T14:17:26.604Z,17.27
2023-03-02T14:19:55.572Z,15.75
2023-03-02T14:22:27.278Z,16.90
2023-03-02T14:24:56.855Z,16.67
2023-03-02T14:27:30.725Z,17.90
2023-03-02T14:29:59.583Z,17.92
2023-03-02T14:32:28.180Z,18.98
2023-03-02T14:34:56.546Z,17.85
2023-03-02T14:37:30.220Z,18.10
2023-03-02T14:42:28.138Z,18.33
2023-03-02T14:44:56.296Z,18.10
2023-03-02T14:47:24.709Z,18.70
2023-03-02T14:49:53.651Z,18.75
2023-03-02T14:52:26.715Z,18.52
2023-03-02T14:55:01.243Z,18.95
2023-03-02T14:57:33.392Z,17.60
2023-03-02T15:00:01.565Z,18.38
2023-03-02T15:02:30.017Z,18.77
2023-03-02T15:04:59.045Z,18.83
2023-03-02T15:07:29.504Z,19.08
2023-03-02T15:10:00.592Z,20.95
2023-03-02T15:12:29.219Z,18.65
2023-03-02T15:14:57.483Z,19.15
2023-03-02T15:17:26.143Z,18.98
2023-03-02T15:19:54.568Z,16.92
2023-03-02T15:22:23.072Z,17.30
2023-03-02T15:24:51.969Z,17.77
2023-03-02T15:27:23.509Z,16.60
2023-03-02T15:29:52.268Z,16.25
2023-03-02T15:32:21.091Z,17.55
2023-03-02T15:34:50.079Z,16.60
2023-03-02T15:37:18.611Z,16.52
2023-03-02T15:39:46.787Z,17.10
2023-03-02T15:42:15.277Z,17.38
2023-03-02T15:44:45.084Z,16.10
2023-03-02T15:47:13.378Z,17.50
2023-03-02T15:49:42.067Z,17.27
2023-03-02T15:52:11.158Z,19.08
2023-03-02T15:54:39.397Z,18.08
2023-03-02T15:57:08.331Z,18.38
2023-03-02T15:59:36.885Z,17.85
2023-03-02T16:02:06.519Z,17.75
2023-03-02T16:04:35.517Z,17.80
2023-03-02T16:07:04.790Z,17.25
2023-03-02T16:09:33.617Z,17.58
2023-03-02T16:12:02.294Z,16.67
2023-03-02T16:14:30.755Z,17.13
2023-03-02T16:16:58.976Z,19.50
2023-03-02T16:19:28.896Z,17.13
2023-03-02T16:21:57.139Z,16.95
2023-03-02T16:24:25.772Z,17.40
2023-03-02T16:26:56.737Z,17.77
2023-03-02T16:29:25.240Z,16.38
2023-03-02T16:31:53.872Z,15.80
2023-03-02T16:34:23.230Z,16.58
2023-03-02T16:36:52.808Z,16.20
2023-03-02T16:39:21.193Z,15.90
2023-03-02T16:41:49.753Z,15.88
2023-03-02T16:44:18.709Z,15.52
2023-03-02T16:46:46.984Z,14.75
2023-03-02T16:49:15.663Z,15.77
2023-03-02T16:51:44.760Z,14.75
2023-03-02T16:54:16.972Z,15.23
2023-03-02T16:56:47.618Z,14.85
2023-03-02T16:59:16.381Z,14.70
2023-03-02T17:01:44.777Z,15.63
2023-03-02T17:04:13.226Z,14.63
2023-03-02T17:06:59.908Z,15.02
2023-03-02T17:09:30.648Z,15.30
2023-03-02T17:11:59.329Z,14.30
2023-03-02T17:14:27.869Z,16.77
2023-03-02T17:16:56.963Z,41.33
2023-03-02T17:19:27.076Z,17.17
2023-03-02T17:21:57.815Z,14.75
2023-03-02T17:24:26.210Z,15.35
2023-03-02T17:26:56.260Z,16.83
2023-03-02T17:29:24.811Z,16.25
2023-03-02T17:31:53.456Z,16.17
2023-03-02T17:34:21.992Z,16.42
2023-03-02T17:36:50.182Z,15.68
2023-03-02T17:39:18.306Z,18.83
2023-03-02T17:41:47.071Z,15.70
2023-03-02T17:44:16.774Z,15.77
2023-03-02T17:46:45.544Z,16.63
2023-03-02T17:49:14.426Z,14.38
2023-03-02T17:51:42.655Z,14.90
2023-03-02T17:54:10.986Z,14.65
2023-03-02T17:56:39.682Z,14.43
2023-03-02T17:59:07.988Z,14.70
2023-03-02T18:01:37.636Z,15.93
2023-03-02T18:04:06.361Z,14.68
2023-03-02T18:06:34.984Z,14.73
2023-03-02T18:09:03.358Z,14.93
2023-03-02T18:11:32.000Z,15.95
2023-03-02T18:14:00.426Z,15.35
2023-03-02T18:16:30.122Z,15.73
2023-03-02T18:19:00.134Z,19.25
2023-03-02T18:21:28.895Z,16.15
2023-03-02T18:23:57.460Z,14.57
2023-03-02T18:26:26.432Z,15.07
2023-03-02T18:28:54.773Z,15.48
2023-03-02T18:31:23.223Z,16.88
2023-03-02T18:33:51.815Z,17.25
2023-03-02T18:36:21.430Z,16.30
2023-03-02T18:38:53.130Z,17.80
2023-03-02T18:41:22.897Z,17.25
2023-03-02T18:43:51.582Z,18.98
2023-03-02T18:46:22.177Z,18.65
2023-03-02T18:48:51.095Z,18.08
2023-03-02T18:51:21.899Z,18.08
2023-03-02T18:53:51.377Z,19.35
2023-03-02T18:56:20.464Z,19.55
2023-03-02T18:58:49.841Z,19.85
2023-03-02T19:01:18.764Z,20.92
2023-03-02T19:03:47.088Z,20.33
2023-03-02T19:06:16.550Z,20.73
2023-03-02T19:08:46.322Z,20.45
2023-03-02T19:11:14.860Z,21.88
2023-03-02T19:13:43.065Z,21.88
2023-03-02T19:16:11.614Z,22.75
2023-03-02T19:18:39.937Z,22.40
2023-03-02T19:21:08.235Z,24.13
2023-03-02T19:23:36.824Z,22.92
2023-03-02T19:26:06.932Z,23.67
2023-03-02T19:28:36.321Z,23.88
2023-03-02T19:31:06.974Z,23.08
2023-03-02T19:33:35.834Z,23.40
2023-03-02T19:36:04.635Z,23.48
2023-03-02T19:38:33.195Z,23.35
2023-03-02T19:41:02.947Z,23.50
2023-03-02T19:43:32.613Z,24.42
2023-03-02T19:46:01.368Z,24.05
2023-03-02T19:48:30.450Z,23.90
2023-03-02T19:50:59.039Z,23.75
2023-03-02T19:53:27.842Z,25.58
2023-03-02T19:56:02.134Z,24.67
2023-03-02T19:58:33.405Z,24.98
2023-03-02T20:01:04.055Z,23.83
2023-03-02T20:03:32.558Z,24.38
2023-03-02T20:06:01.202Z,23.17
2023-03-02T20:08:29.953Z,23.70
2023-03-02T20:10:59.087Z,24.50
2023-03-02T20:13:27.588Z,25.70
2023-03-02T20:15:57.510Z,24.88
2023-03-02T20:18:25.742Z,24.67
2023-03-02T20:20:54.337Z,23.75
2023-03-02T20:23:24.014Z,25.55
2023-03-02T20:25:52.454Z,25.55
2023-03-02T20:28:24.300Z,25.73
2023-03-02T20:30:57.538Z,25.35
2023-03-02T20:33:30.083Z,26.85
2023-03-02T20:36:00.997Z,25.73
2023-03-02T20:38:33.786Z,27.10
2023-03-02T20:41:02.703Z,26.10
2023-03-02T20:43:31.473Z,26.23
2023-03-02T20:46:02.506Z,26.27
2023-03-02T20:48:31.061Z,27.55
2023-03-02T20:50:59.669Z,26.05
2023-03-02T20:53:29.327Z,26.45
2023-03-02T20:55:58.933Z,26.70
2023-03-02T20:58:27.248Z,28.00
2023-03-02T21:00:56.046Z,27.60
2023-03-02T21:03:25.753Z,28.38
2023-03-02T21:05:54.016Z,28.20
2023-03-02T21:08:22.756Z,28.35
2023-03-02T21:10:51.088Z,27.70
2023-03-02T21:13:19.652Z,29.33
2023-03-02T21:15:48.379Z,29.13
2023-03-02T21:18:17.010Z,27.77
2023-03-02T21:20:46.582Z,29.60
2023-03-02T21:23:15.252Z,28.38
2023-03-02T21:25:43.951Z,27.52
2023-03-02T21:28:12.306Z,29.52
2023-03-02T21:30:41.180Z,29.00
2023-03-02T21:33:10.905Z,29.40
2023-03-02T21:35:39.331Z,29.33
2023-03-02T21:38:09.730Z,29.13
2023-03-02T21:40:43.104Z,29.00
2023-03-02T21:43:11.680Z,28.48
2023-03-02T21:45:40.755Z,29.67
2023-03-02T21:48:09.557Z,29.48
2023-03-02T21:50:39.830Z,28.88
2023-03-02T21:53:10.323Z,29.67
2023-03-02T21:55:39.041Z,29.83
2023-03-02T21:58:07.560Z,28.88
2023-03-02T22:00:38.624Z,28.63
2023-03-02T22:03:07.581Z,30.05
2023-03-02T22:05:36.601Z,28.88
2023-03-02T22:08:04.802Z,30.30
2023-03-02T22:10:39.662Z,29.73
2023-03-02T22:13:18.052Z,28.77
2023-03-02T22:15:46.970Z,29.83
2023-03-02T22:18:18.072Z,30.33
2023-03-02T22:20:48.067Z,30.45
2023-03-02T22:23:19.269Z,30.17
2023-03-02T22:25:52.286Z,30.95
2023-03-02T22:28:22.517Z,29.67
2023-03-02T22:30:52.294Z,29.73
2023-03-02T22:33:23.516Z,29.65
2023-03-02T22:35:55.177Z,30.40
2023-03-02T22:38:27.025Z,30.10
2023-03-02T22:40:57.594Z,30.40
2023-03-02T22:43:29.568Z,30.30
2023-03-02T22:46:00.916Z,30.33
2023-03-02T22:48:30.988Z,31.52
2023-03-02T22:50:59.345Z,31.13
2023-03-02T22:53:30.607Z,30.08
2023-03-02T22:56:02.987Z,29.23
2023-03-02T22:58:37.657Z,29.58
2023-03-02T23:01:19.839Z,28.20
2023-03-02T23:03:49.542Z,28.67
2023-03-02T23:06:24.733Z,28.35
2023-03-02T23:08:53.764Z,29.45
2023-03-02T23:11:24.897Z,30.00
2023-03-02T23:13:54.234Z,28.75
2023-03-02T23:16:24.561Z,28.52
2023-03-02T23:18:55.045Z,29.73
2023-03-02T23:21:28.466Z,28.92
2023-03-02T23:23:57.135Z,29.20
2023-03-02T23:26:27.894Z,28.42
2023-03-02T23:28:56.092Z,28.75
2023-03-02T23:31:24.343Z,28.20
2023-03-02T23:33:53.088Z,28.45
2023-03-02T23:36:21.659Z,26.80
2023-03-02T23:38:50.120Z,28.40
2023-03-02T23:41:19.168Z,28.52
2023-03-02T23:43:48.919Z,27.33
2023-03-02T23:46:17.268Z,25.98
2023-03-02T23:48:48.076Z,25.95
2023-03-02T23:51:16.323Z,25.88
2023-03-02T23:53:44.765Z,25.17
2023-03-02T23:56:13.408Z,24.38
2023-03-02T23:58:41.697Z,25.15
